Time;durP1;ratioP1;P1;durP2;ratioP2;P2;SDS_P1;SDS_P2;PMS_P1;PMS_P2;Temp;Humidity;BMP_temperature;BMP_pressure;BME280_temperature;BME280_humidity;BME280_pressure;Samples;Min_cycle;Max_cycle;Signal;HPM_P1;HPM_P2
2023/09/01 00:02:25;;;;;;;10.80;4.97;;;14.90;99.90;;;;;;5053326;28;20128;-44
2023/09/01 00:05:03;;;;;;;12.52;4.25;;;14.90;99.90;;;;;;5053244;28;20129;-45
2023/09/01 00:07:30;;;;;;;10.35;5.28;;;14.90;99.90;;;;;;5060205;28;20163;-45
2023/09/01 00:09:58;;;;;;;9.60;4.15;;;14.90;99.90;;;;;;5051590;28;20474;-43
2023/09/01 00:12:26;;;;;;;9.70;5.15;;;14.90;99.90;;;;;;5055749;28;20054;-45
2023/09/01 00:14:53;;;;;;;8.68;4.60;;;14.90;99.90;;;;;;5057444;28;20045;-45
2023/09/01 00:17:21;;;;;;;16.02;7.05;;;14.90;99.90;;;;;;5050279;28;20063;-48
2023/09/01 00:19:48;;;;;;;11.43;5.70;;;14.80;99.90;;;;;;5053740;28;20052;-44
2023/09/01 00:22:15;;;;;;;9.45;5.28;;;14.80;99.90;;;;;;5054865;28;20102;-44
2023/09/01 00:24:43;;;;;;;11.82;5.00;;;14.80;99.90;;;;;;5059705;28;20086;-46
2023/09/01 00:27:10;;;;;;;11.68;5.65;;;14.70;99.90;;;;;;5055452;28;20049;-43
2023/09/01 00:29:37;;;;;;;9.55;5.05;;;14.80;99.90;;;;;;5059400;28;20044;-44
2023/09/01 00:32:05;;;;;;;9.85;5.20;;;14.80;99.90;;;;;;5054025;28;20376;-44
2023/09/01 00:34:33;;;;;;;13.35;5.15;;;14.70;99.90;;;;;;5058823;28;20041;-44
2023/09/01 00:37:00;;;;;;;8.80;5.38;;;14.70;99.90;;;;;;5051141;28;20468;-43
2023/09/01 00:39:28;;;;;;;10.80;5.15;;;14.70;99.90;;;;;;5056164;28;20056;-42
2023/09/01 00:41:56;;;;;;;11.38;4.70;;;14.70;99.90;;;;;;5056550;28;20041;-45
2023/09/01 00:44:23;;;;;;;10.20;5.07;;;14.60;99.90;;;;;;5057106;28;20796;-44
2023/09/01 00:46:50;;;;;;;12.02;5.57;;;14.60;99.90;;;;;;5056415;28;20044;-45
2023/09/01 00:49:18;;;;;;;10.77;5.22;;;14.60;99.90;;;;;;5053619;28;20045;-45
2023/09/01 00:51:46;;;;;;;11.13;4.97;;;14.60;99.90;;;;;;5058477;28;20048;-49
2023/09/01 00:54:15;;;;;;;10.73;5.13;;;14.60;99.90;;;;;;5062776;28;20460;-44
2023/09/01 00:56:44;;;;;;;7.82;4.75;;;14.60;99.90;;;;;;5051233;28;20040;-44
2023/09/01 00:59:11;;;;;;;12.25;5.88;;;14.60;99.90;;;;;;5060080;28;20045;-44
2023/09/01 01:01:41;;;;;;;9.80;5.38;;;14.50;99.90;;;;;;5060978;28;20114;-45
2023/09/01 01:04:08;;;;;;;12.90;5.65;;;14.50;99.90;;;;;;5051813;28;20486;-46
2023/09/01 01:06:59;;;;;;;16.88;6.13;;;14.50;99.90;;;;;;5057135;28;20048;-42
2023/09/01 01:09:47;;;;;;;12.02;5.80;;;14.50;99.90;;;;;;5054108;28;20118;-44
2023/09/01 01:12:41;;;;;;;11.93;5.93;;;14.50;99.90;;;;;;5059400;28;20498;-44
2023/09/01 01:15:12;;;;;;;11.82;6.22;;;14.50;99.90;;;;;;5033066;28;20045;-42
2023/09/01 01:17:45;;;;;;;12.90;6.63;;;14.50;99.90;;;;;;5061956;28;20310;-44
2023/09/01 01:20:44;;;;;;;11.23;5.82;;;14.50;99.90;;;;;;5061025;28;20052;-42
2023/09/01 01:23:14;;;;;;;11.77;6.07;;;14.50;99.90;;;;;;5061954;28;20124;-42
2023/09/01 01:25:50;;;;;;;13.90;5.43;;;14.50;99.90;;;;;;5063042;28;20127;-43
2023/09/01 01:28:19;;;;;;;11.43;5.70;;;14.40;99.90;;;;;;5059015;28;20045;-45
2023/09/01 01:30:47;;;;;;;11.80;5.40;;;14.40;99.90;;;;;;5062188;28;20493;-42
2023/09/01 01:33:33;;;;;;;11.15;5.30;;;14.50;99.90;;;;;;5058210;28;20071;-43
2023/09/01 01:36:25;;;;;;;11.20;6.13;;;14.50;99.90;;;;;;5052993;28;20037;-44
2023/09/01 01:38:57;;;;;;;;;;;14.50;99.90;;;;;;5055633;28;20438;-46
2023/09/01 01:41:33;;;;;;;10.02;6.10;;;14.50;99.90;;;;;;5061481;28;19920;-44
2023/09/01 01:44:03;;;;;;;12.20;5.72;;;14.50;99.90;;;;;;5057421;28;20033;-43
2023/09/01 01:46:31;;;;;;;12.93;5.63;;;14.50;99.90;;;;;;5060348;28;20040;-42
2023/09/01 01:48:59;;;;;;;12.93;6.03;;;14.60;99.90;;;;;;5056095;28;20065;-42
2023/09/01 01:51:26;;;;;;;10.10;5.88;;;14.50;99.90;;;;;;5060026;28;20051;-46
2023/09/01 01:53:53;;;;;;;13.02;6.10;;;14.50;99.90;;;;;;5060014;28;20120;-44
2023/09/01 01:56:22;;;;;;;10.90;5.85;;;14.50;99.90;;;;;;5054993;28;20222;-42
2023/09/01 01:58:49;;;;;;;12.05;5.75;;;14.50;99.90;;;;;;5056042;28;20408;-41
2023/09/01 02:01:16;;;;;;;10.93;5.80;;;14.50;99.90;;;;;;5050947;28;20491;-42
2023/09/01 02:03:44;;;;;;;11.60;5.60;;;14.50;99.90;;;;;;5060464;28;20056;-45
2023/09/01 02:06:11;;;;;;;12.15;6.05;;;14.50;99.90;;;;;;5061356;28;20041;-46
2023/09/01 02:08:39;;;;;;;9.88;5.18;;;14.50;99.90;;;;;;5055553;28;20033;-45
2023/09/01 02:11:06;;;;;;;11.35;5.65;;;14.50;99.90;;;;;;5055812;28;20048;-47
2023/09/01 02:13:33;;;;;;;10.90;6.05;;;14.50;99.90;;;;;;5065748;28;20113;-42
2023/09/01 02:16:01;;;;;;;12.93;5.43;;;14.50;99.90;;;;;;5058543;28;20738;-43
2023/09/01 02:18:28;;;;;;;9.98;5.72;;;14.50;99.90;;;;;;5065307;28;20044;-43
2023/09/01 02:20:56;;;;;;;12.30;5.18;;;14.50;99.90;;;;;;5060207;28;20041;-46
2023/09/01 02:23:24;;;;;;;12.30;5.60;;;14.50;99.90;;;;;;5062685;28;20452;-45
2023/09/01 02:25:51;;;;;;;10.45;5.72;;;14.50;99.90;;;;;;5061838;28;20048;-46
2023/09/01 02:28:18;;;;;;;10.02;6.13;;;14.50;99.90;;;;;;5060492;28;20045;-46
2023/09/01 02:30:46;;;;;;;10.68;5.65;;;14.40;99.90;;;;;;5055241;28;20501;-45
2023/09/01 02:33:14;;;;;;;13.85;6.80;;;14.40;99.90;;;;;;5056485;28;20052;-45
2023/09/01 02:35:44;;;;;;;12.77;6.15;;;14.40;99.90;;;;;;5055410;28;20493;-44
2023/09/01 02:38:12;;;;;;;13.48;5.63;;;14.40;99.90;;;;;;5059185;28;20457;-43
2023/09/01 02:40:40;;;;;;;10.98;5.65;;;14.40;99.90;;;;;;5050340;28;20537;-43
2023/09/01 02:43:08;;;;;;;8.85;4.95;;;14.40;99.90;;;;;;5059241;28;20040;-42
2023/09/01 02:45:35;;;;;;;10.30;5.28;;;14.40;99.90;;;;;;5054907;28;20110;-44
2023/09/01 02:48:02;;;;;;;13.70;5.95;;;14.40;99.90;;;;;;5044823;28;20046;-46
2023/09/01 02:50:30;;;;;;;8.55;5.13;;;14.40;99.90;;;;;;5054567;28;20045;-43
2023/09/01 02:52:58;;;;;;;10.50;4.95;;;14.40;99.90;;;;;;5056895;28;20429;-45
2023/09/01 02:55:25;;;;;;;8.73;4.85;;;14.40;99.90;;;;;;5058335;28;20105;-44
2023/09/01 02:57:52;;;;;;;11.88;5.20;;;14.40;99.90;;;;;;5059323;28;20127;-43
2023/09/01 03:00:21;;;;;;;9.93;6.20;;;14.30;99.90;;;;;;5056493;28;20044;-43
2023/09/01 03:02:50;;;;;;;9.68;5.57;;;14.40;99.90;;;;;;5055015;28;20436;-42
2023/09/01 03:05:18;;;;;;;13.00;6.03;;;14.40;99.90;;;;;;5055916;28;20043;-47
2023/09/01 03:07:46;;;;;;;10.40;5.57;;;14.40;99.90;;;;;;5056629;28;20137;-44
2023/09/01 03:10:13;;;;;;;7.90;5.68;;;14.30;99.90;;;;;;5051879;28;20049;-43
2023/09/01 03:12:40;;;;;;;8.93;5.07;;;14.30;99.90;;;;;;5052611;28;20059;-48
2023/09/01 03:15:09;;;;;;;8.20;5.00;;;14.30;99.90;;;;;;5054674;28;20052;-45
2023/09/01 03:17:37;;;;;;;9.25;5.05;;;14.30;99.90;;;;;;5059738;28;20052;-49
2023/09/01 03:20:08;;;;;;;7.38;4.82;;;14.30;99.90;;;;;;5055974;28;20421;-45
2023/09/01 03:22:37;;;;;;;8.82;4.82;;;14.30;99.90;;;;;;5059898;28;20048;-48
2023/09/01 03:25:09;;;;;;;8.48;4.65;;;14.20;99.90;;;;;;5055898;28;20033;-49
2023/09/01 03:27:39;;;;;;;9.52;5.28;;;14.20;99.90;;;;;;5059579;28;20576;-46
2023/09/01 03:30:10;;;;;;;8.55;4.90;;;14.20;99.90;;;;;;5057537;28;20095;-47
2023/09/01 03:32:39;;;;;;;8.75;5.22;;;14.20;99.90;;;;;;5059103;28;20117;-45
2023/09/01 03:35:07;;;;;;;8.90;5.00;;;14.20;99.90;;;;;;5060348;28;20044;-45
2023/09/01 03:37:35;;;;;;;9.88;4.65;;;14.20;99.90;;;;;;5055339;28;20493;-44
2023/09/01 03:40:10;;;;;;;9.07;4.85;;;14.20;99.90;;;;;;5052332;28;20041;-42
2023/09/01 03:42:39;;;;;;;9.32;5.00;;;14.20;99.90;;;;;;5058754;28;20044;-47
2023/09/01 03:45:06;;;;;;;8.98;4.95;;;14.20;99.90;;;;;;5057299;28;20118;-44
2023/09/01 03:47:34;;;;;;;8.93;4.53;;;14.20;99.90;;;;;;5058389;28;20130;-45
2023/09/01 03:50:02;;;;;;;10.50;6.00;;;14.20;99.90;;;;;;5056909;28;20557;-47
2023/09/01 03:52:29;;;;;;;10.68;4.95;;;14.20;99.90;;;;;;5056210;28;20139;-44
2023/09/01 03:54:58;;;;;;;9.50;5.82;;;14.20;99.90;;;;;;5055736;28;20045;-44
2023/09/01 03:57:25;;;;;;;10.27;5.63;;;14.20;99.90;;;;;;5057587;28;20139;-45
2023/09/01 03:59:53;;;;;;;7.88;5.10;;;14.20;99.90;;;;;;5055257;28;20056;-44
2023/09/01 04:02:21;;;;;;;7.93;5.38;;;14.20;99.90;;;;;;5060072;28;20103;-49
2023/09/01 04:04:49;;;;;;;9.32;5.10;;;14.20;99.90;;;;;;5056762;28;20501;-43
2023/09/01 04:07:16;;;;;;;7.45;4.70;;;14.20;99.90;;;;;;5054490;28;20140;-47
2023/09/01 04:09:43;;;;;;;6.93;4.18;;;14.20;99.90;;;;;;5055074;28;20047;-45
2023/09/01 04:12:11;;;;;;;7.70;5.00;;;14.20;99.90;;;;;;5055873;28;20099;-45
2023/09/01 04:14:38;;;;;;;9.35;5.32;;;14.20;99.90;;;;;;5054920;28;20129;-43
2023/09/01 04:17:05;;;;;;;9.70;4.88;;;14.20;99.90;;;;;;5049304;28;20053;-43
2023/09/01 04:19:33;;;;;;;7.28;4.72;;;14.20;99.90;;;;;;5057855;28;20055;-43
2023/09/01 04:22:01;;;;;;;7.32;5.13;;;14.30;99.90;;;;;;5050907;28;20114;-43
2023/09/01 04:24:28;;;;;;;8.18;4.28;;;14.30;99.90;;;;;;5049333;28;20588;-46
2023/09/01 04:26:57;;;;;;;6.72;4.63;;;14.30;99.90;;;;;;5049525;28;20772;-45
2023/09/01 04:29:24;;;;;;;6.35;3.90;;;14.30;99.90;;;;;;5052873;28;20052;-47
2023/09/01 04:31:52;;;;;;;8.20;4.60;;;14.30;99.90;;;;;;5054422;28;20075;-42
2023/09/01 04:34:20;;;;;;;6.43;4.45;;;14.30;99.90;;;;;;5054225;28;20063;-47
2023/09/01 04:36:50;;;;;;;8.45;5.40;;;14.20;99.90;;;;;;5047348;28;20497;-45
2023/09/01 04:39:18;;;;;;;9.05;5.88;;;14.30;99.90;;;;;;5054905;28;20071;-46
2023/09/01 04:41:45;;;;;;;10.55;6.15;;;14.30;99.90;;;;;;5040004;28;20045;-45
2023/09/01 04:44:14;;;;;;;7.40;5.28;;;14.30;99.90;;;;;;5037085;28;20099;-44
2023/09/01 04:46:41;;;;;;;8.95;5.25;;;14.30;99.90;;;;;;5035804;28;20025;-46
2023/09/01 04:49:08;;;;;;;7.88;5.40;;;14.40;99.90;;;;;;5036098;28;20041;-42
2023/09/01 04:51:37;;;;;;;10.07;5.43;;;14.40;99.90;;;;;;5039246;28;20053;-43
2023/09/01 04:54:04;;;;;;;8.30;5.35;;;14.40;99.90;;;;;;5054572;28;20401;-45
2023/09/01 04:56:32;;;;;;;10.70;5.90;;;14.40;99.90;;;;;;5054827;28;20040;-43
2023/09/01 04:59:00;;;;;;;8.52;5.30;;;14.50;99.90;;;;;;5052433;28;20045;-44
2023/09/01 05:01:28;;;;;;;10.30;5.20;;;14.50;99.90;;;;;;5036845;28;20044;-43
2023/09/01 05:03:55;;;;;;;9.45;5.10;;;14.50;99.90;;;;;;5049576;28;20417;-48
2023/09/01 05:06:23;;;;;;;8.50;5.75;;;14.50;99.90;;;;;;5051758;28;20124;-44
2023/09/01 05:08:50;;;;;;;8.13;5.32;;;14.50;99.90;;;;;;5048841;28;20045;-42
2023/09/01 05:11:17;;;;;;;8.98;5.72;;;14.50;99.90;;;;;;5053320;28;20052;-44
2023/09/01 05:13:45;;;;;;;9.35;6.05;;;14.50;99.90;;;;;;5048673;28;20135;-44
2023/09/01 05:16:13;;;;;;;9.65;5.50;;;14.50;99.90;;;;;;5054976;28;20057;-42
2023/09/01 05:18:41;;;;;;;10.35;6.20;;;14.60;99.90;;;;;;5042115;28;20458;-43
2023/09/01 05:21:09;;;;;;;8.18;5.47;;;14.50;99.90;;;;;;5053226;28;20068;-43
2023/09/01 05:23:39;;;;;;;10.55;6.40;;;14.50;99.90;;;;;;5045227;28;20041;-44
2023/09/01 05:26:06;;;;;;;11.40;7.03;;;14.40;99.90;;;;;;5044734;28;20422;-43
2023/09/01 05:28:34;;;;;;;9.85;6.53;;;14.40;99.90;;;;;;5039431;28;20102;-44
2023/09/01 05:31:02;;;;;;;9.07;6.20;;;14.40;99.90;;;;;;5049447;28;20315;-43
2023/09/01 05:33:33;;;;;;;10.82;6.43;;;14.50;99.90;;;;;;5051814;28;20501;-42
2023/09/01 05:36:01;;;;;;;11.88;6.55;;;14.50;99.90;;;;;;5056352;28;20123;-42
2023/09/01 05:38:28;;;;;;;7.93;5.82;;;14.50;99.90;;;;;;5052987;28;20053;-43
2023/09/01 05:40:57;;;;;;;11.15;6.80;;;14.50;99.90;;;;;;5050234;28;20450;-45
2023/09/01 05:43:25;;;;;;;10.48;6.55;;;14.60;99.90;;;;;;5051878;28;20391;-44
2023/09/01 05:45:53;;;;;;;10.35;6.25;;;14.70;99.90;;;;;;5055555;28;20044;-42
2023/09/01 05:48:24;;;;;;;10.98;6.30;;;14.70;99.90;;;;;;5056815;28;20037;-44
2023/09/01 05:50:52;;;;;;;7.43;5.35;;;14.70;99.90;;;;;;5058922;28;20044;-43
2023/09/01 05:53:20;;;;;;;10.27;6.30;;;14.70;99.90;;;;;;5055306;28;20068;-42
2023/09/01 05:55:48;;;;;;;9.82;6.43;;;14.70;99.90;;;;;;5057692;28;20484;-43
2023/09/01 05:58:15;;;;;;;8.80;6.47;;;14.70;99.90;;;;;;5055089;28;20049;-43
2023/09/01 06:00:43;;;;;;;9.20;6.32;;;14.70;99.90;;;;;;5057372;28;20080;-44
2023/09/01 06:03:10;;;;;;;8.63;6.25;;;14.80;99.90;;;;;;5048380;28;20890;-45
2023/09/01 06:05:38;;;;;;;9.27;6.15;;;14.80;99.90;;;;;;5058070;28;20037;-45
2023/09/01 06:08:05;;;;;;;10.55;7.03;;;14.80;99.90;;;;;;5056376;28;20051;-43
2023/09/01 06:10:32;;;;;;;11.68;6.82;;;14.80;99.90;;;;;;5059010;28;20477;-42
2023/09/01 06:13:00;;;;;;;10.00;6.93;;;14.90;99.90;;;;;;5057161;28;20102;-43
2023/09/01 06:15:27;;;;;;;15.10;9.48;;;14.90;99.90;;;;;;5058696;28;20102;-45
2023/09/01 06:17:54;;;;;;;12.98;8.52;;;14.90;99.90;;;;;;5058892;28;20033;-43
2023/09/01 06:20:22;;;;;;;12.07;8.13;;;15.00;99.90;;;;;;5058466;28;20051;-43
2023/09/01 06:22:53;;;;;;;13.32;8.80;;;15.10;99.90;;;;;;5059964;28;20044;-44
2023/09/01 06:25:21;;;;;;;9.13;6.60;;;15.20;99.90;;;;;;5056633;28;20053;-45
2023/09/01 06:27:48;;;;;;;8.60;6.47;;;15.20;99.90;;;;;;5058114;28;20123;-45
2023/09/01 06:30:15;;;;;;;11.65;6.88;;;15.20;99.90;;;;;;5060023;28;20084;-44
2023/09/01 06:32:43;;;;;;;11.23;6.38;;;15.30;99.90;;;;;;5056232;28;20216;-44
2023/09/01 06:35:14;;;;;;;10.50;6.27;;;15.30;99.90;;;;;;5058056;28;20452;-45
2023/09/01 06:37:41;;;;;;;11.40;6.47;;;15.40;99.90;;;;;;5056530;28;20460;-40
2023/09/01 06:40:09;;;;;;;11.57;6.38;;;15.50;99.90;;;;;;5056016;28;20421;-47
2023/09/01 06:42:36;;;;;;;9.77;6.18;;;15.60;99.90;;;;;;5061134;28;20051;-43
2023/09/01 06:45:04;;;;;;;8.98;6.03;;;15.80;99.90;;;;;;5053984;28;20509;-41
2023/09/01 06:47:31;;;;;;;11.23;6.30;;;16.00;99.90;;;;;;5057173;28;20037;-46
2023/09/01 06:49:59;;;;;;;9.20;5.70;;;16.00;99.90;;;;;;5058398;28;20139;-49
2023/09/01 06:52:26;;;;;;;10.20;5.95;;;16.10;99.90;;;;;;5054901;28;20063;-43
2023/09/01 06:54:53;;;;;;;10.57;6.38;;;16.20;99.90;;;;;;5057975;28;20114;-47
2023/09/01 06:57:21;;;;;;;8.55;6.03;;;16.20;99.90;;;;;;5059333;28;20429;-47
2023/09/01 06:59:48;;;;;;;14.30;6.68;;;16.10;99.90;;;;;;5052170;28;20128;-45
2023/09/01 07:02:15;;;;;;;24.55;15.82;;;16.10;99.90;;;;;;5056966;28;20544;-46
2023/09/01 07:04:42;;;;;;;11.85;7.32;;;16.20;99.90;;;;;;5059220;28;20048;-45
2023/09/01 07:07:10;;;;;;;9.95;6.20;;;16.40;99.90;;;;;;5054500;28;21552;-49
2023/09/01 07:09:38;;;;;;;10.18;5.93;;;16.50;99.90;;;;;;5055454;28;20045;-45
2023/09/01 07:12:06;;;;;;;11.23;6.03;;;16.70;99.90;;;;;;5056048;28;20430;-44
2023/09/01 07:14:33;;;;;;;9.38;5.72;;;16.80;99.90;;;;;;5057227;28;20079;-47
2023/09/01 07:17:00;;;;;;;9.52;6.35;;;16.90;99.90;;;;;;5055778;28;20045;-46
2023/09/01 07:19:28;;;;;;;12.07;7.30;;;17.10;99.90;;;;;;5059897;28;20048;-46
2023/09/01 07:21:55;;;;;;;9.15;5.88;;;17.10;99.90;;;;;;5059399;28;20041;-46
2023/09/01 07:24:22;;;;;;;12.85;5.82;;;17.10;99.90;;;;;;5055489;28;20126;-47
2023/09/01 07:26:50;;;;;;;8.23;5.55;;;17.10;99.90;;;;;;5057686;28;20261;-46
2023/09/01 07:29:17;;;;;;;8.85;5.18;;;17.10;99.90;;;;;;5058417;28;20136;-45
2023/09/01 07:31:44;;;;;;;11.55;5.40;;;17.30;99.90;;;;;;5055008;28;20044;-46
2023/09/01 07:34:12;;;;;;;9.20;4.78;;;17.40;99.90;;;;;;5055508;28;20053;-45
2023/09/01 07:36:39;;;;;;;9.60;5.28;;;17.30;99.90;;;;;;5059292;28;20532;-48
2023/09/01 07:39:07;;;;;;;11.88;5.63;;;17.50;99.90;;;;;;5055685;28;20116;-45
2023/09/01 07:41:34;;;;;;;8.95;5.22;;;17.60;99.90;;;;;;5052350;28;20041;-45
2023/09/01 07:44:01;;;;;;;7.45;4.82;;;17.60;99.90;;;;;;5055695;28;20041;-45
2023/09/01 07:46:33;;;;;;;8.20;4.60;;;17.70;99.90;;;;;;5057938;28;20044;-45
2023/09/01 07:49:02;;;;;;;8.52;4.35;;;17.70;99.90;;;;;;5053277;28;20040;-46
2023/09/01 07:51:30;;;;;;;10.25;4.60;;;17.70;99.90;;;;;;5056695;28;20051;-46
2023/09/01 07:53:57;;;;;;;6.57;4.57;;;17.80;99.90;;;;;;5057957;28;20386;-44
2023/09/01 07:56:25;;;;;;;8.80;5.57;;;17.70;99.90;;;;;;5059506;28;20052;-42
2023/09/01 07:58:52;;;;;;;9.02;5.28;;;17.70;99.90;;;;;;5058304;28;20048;-45
2023/09/01 08:01:19;;;;;;;7.40;3.88;;;17.70;99.90;;;;;;5054209;28;20449;-44
2023/09/01 08:03:47;;;;;;;8.55;4.22;;;17.80;99.90;;;;;;5056212;28;20402;-47
2023/09/01 08:06:14;;;;;;;6.65;4.43;;;17.80;99.90;;;;;;5057143;28;20081;-47
2023/09/01 08:08:42;;;;;;;7.75;3.88;;;17.80;99.90;;;;;;5056770;28;20044;-43
2023/09/01 08:11:09;;;;;;;6.45;3.85;;;17.70;99.90;;;;;;5054118;28;20405;-44
2023/09/01 08:13:36;;;;;;;11.15;4.47;;;17.70;99.90;;;;;;5057216;28;20045;-45
2023/09/01 08:16:04;;;;;;;6.97;4.05;;;17.60;99.90;;;;;;5058940;28;20425;-45
2023/09/01 08:18:33;;;;;;;6.85;3.70;;;17.60;99.90;;;;;;5054738;28;20040;-45
2023/09/01 08:21:05;;;;;;;9.43;4.00;;;17.70;99.90;;;;;;5058197;28;20500;-45
2023/09/01 08:23:32;;;;;;;7.53;3.83;;;17.60;99.90;;;;;;5058606;28;20044;-45
2023/09/01 08:26:04;;;;;;;6.78;4.10;;;17.60;99.90;;;;;;5063334;28;20095;-49
2023/09/01 08:28:31;;;;;;;;;;;17.60;99.90;;;;;;5057801;28;20063;-45
2023/09/01 08:31:05;;;;;;;7.57;3.25;;;17.60;99.90;;;;;;5057969;28;19971;-44
2023/09/01 08:33:33;;;;;;;;;;;17.60;99.90;;;;;;5059884;28;20131;-48
2023/09/01 08:36:03;;;;;;;5.03;2.85;;;17.60;99.90;;;;;;5052989;28;20027;-45
2023/09/01 08:38:30;;;;;;;5.60;2.80;;;17.70;99.90;;;;;;5067493;28;20048;-45
2023/09/01 08:40:59;;;;;;;9.23;3.13;;;17.40;99.90;;;;;;5048361;28;20044;-45
2023/09/01 08:43:34;;;;;;;6.45;2.55;;;17.40;99.90;;;;;;5058213;28;20128;-45
2023/09/01 08:46:03;;;;;;;5.70;2.15;;;17.30;99.90;;;;;;5048147;28;20045;-44
2023/09/01 08:48:41;;;;;;;5.50;2.53;;;17.30;99.90;;;;;;5054474;28;20040;-46
2023/09/01 08:51:09;;;;;;;4.47;2.40;;;17.50;99.90;;;;;;5053423;28;20037;-44
2023/09/01 08:53:39;;;;;;;6.65;2.58;;;17.50;99.90;;;;;;5057922;28;20051;-46
2023/09/01 08:56:07;;;;;;;5.68;2.50;;;17.50;99.90;;;;;;5049610;28;20063;-43
2023/09/01 08:58:36;;;;;;;5.68;2.58;;;17.70;99.90;;;;;;5057530;28;20119;-42
2023/09/01 09:01:03;;;;;;;5.20;2.55;;;17.80;99.90;;;;;;5054838;28;20072;-44
2023/09/01 09:03:32;;;;;;;5.78;2.80;;;18.00;99.90;;;;;;5049071;28;20045;-48
2023/09/01 09:06:02;;;;;;;6.15;2.78;;;17.90;99.90;;;;;;5054402;28;20041;-43
2023/09/01 09:08:30;;;;;;;4.30;2.28;;;17.80;99.90;;;;;;5045290;28;20121;-44
2023/09/01 09:10:57;;;;;;;7.35;2.80;;;18.00;99.90;;;;;;5059568;28;20045;-45
2023/09/01 09:13:27;;;;;;;7.00;2.58;;;18.00;99.90;;;;;;5061194;28;20433;-46
2023/09/01 09:16:14;;;;;;;7.60;3.20;;;18.00;99.90;;;;;;5058693;28;20061;-44
2023/09/01 09:18:44;;;;;;;9.20;2.95;;;18.10;99.90;;;;;;5057613;28;20102;-42
2023/09/01 09:21:21;;;;;;;7.97;3.25;;;18.10;99.90;;;;;;5059792;28;20057;-44
2023/09/01 09:23:49;;;;;;;8.85;2.60;;;18.00;99.90;;;;;;5053434;28;20076;-43
2023/09/01 09:26:24;;;;;;;6.70;2.90;;;18.00;99.90;;;;;;5053601;28;20072;-42
2023/09/01 09:28:52;;;;;;;4.95;2.47;;;18.20;99.90;;;;;;5054342;28;20055;-45
2023/09/01 09:31:30;;;;;;;4.63;2.65;;;18.20;99.90;;;;;;5057473;28;20059;-48
2023/09/01 09:33:57;;;;;;;5.68;3.33;;;18.20;99.90;;;;;;5049238;28;20059;-47
2023/09/01 09:36:33;;;;;;;5.40;3.20;;;18.10;99.90;;;;;;5056000;28;20064;-47
2023/09/01 09:39:01;;;;;;;7.72;2.80;;;17.90;99.90;;;;;;5052261;28;20059;-47
2023/09/01 09:41:45;;;;;;;8.10;3.25;;;17.90;99.90;;;;;;5055080;28;20673;-48
2023/09/01 09:44:23;;;;;;;7.45;3.28;;;18.10;99.90;;;;;;5050560;28;20072;-48
2023/09/01 09:46:51;;;;;;;6.20;2.85;;;18.30;99.90;;;;;;5047387;28;20049;-45
2023/09/01 09:49:20;;;;;;;5.25;3.20;;;18.70;99.90;;;;;;5051438;28;20118;-45
2023/09/01 09:51:53;;;;;;;6.70;3.10;;;19.20;99.90;;;;;;5058835;28;20094;-46
2023/09/01 09:54:23;;;;;;;4.85;3.10;;;19.70;99.90;;;;;;5056981;28;20033;-47
2023/09/01 09:56:51;;;;;;;6.88;3.40;;;20.10;99.90;;;;;;5052297;28;20604;-48
2023/09/01 09:59:43;;;;;;;4.60;2.78;;;20.40;99.90;;;;;;5057641;28;20044;-46
2023/09/01 10:02:36;;;;;;;5.30;2.47;;;20.20;99.90;;;;;;5045819;28;20052;-45
2023/09/01 10:05:04;;;;;;;8.05;3.13;;;20.30;99.90;;;;;;5049908;28;20120;-46
2023/09/01 10:07:33;;;;;;;6.65;2.50;;;20.10;99.90;;;;;;5052587;28;20033;-45
2023/09/01 10:10:01;;;;;;;5.00;2.80;;;20.30;99.90;;;;;;5048932;28;20051;-48
2023/09/01 10:12:29;;;;;;;5.68;2.58;;;20.60;99.90;;;;;;5060792;28;20051;-50
2023/09/01 10:14:58;;;;;;;5.22;2.30;;;20.80;99.90;;;;;;5058776;28;20045;-46
2023/09/01 10:17:27;;;;;;;5.82;2.20;;;20.90;99.90;;;;;;5051699;28;20148;-47
2023/09/01 10:19:56;;;;;;;3.72;1.92;;;21.10;99.90;;;;;;5045659;28;20715;-48
2023/09/01 10:22:23;;;;;;;5.57;2.08;;;21.10;99.90;;;;;;5049163;28;20431;-49
2023/09/01 10:25:29;;;;;;;4.15;2.00;;;21.30;99.90;;;;;;5051834;28;20045;-49
2023/09/01 10:28:08;;;;;;;3.15;2.05;;;21.60;99.90;;;;;;5014854;28;20072;-51
2023/09/01 10:30:40;;;;;;;4.47;1.92;;;21.00;99.90;;;;;;5014871;28;20072;-46
2023/09/01 10:33:24;;;;;;;3.58;2.15;;;20.90;99.90;;;;;;5009806;28;20392;-48
2023/09/01 10:35:57;;;;;;;2.90;1.67;;;20.60;99.90;;;;;;5014152;28;20534;-45
2023/09/01 10:38:34;;;;;;;2.92;1.80;;;20.40;99.90;;;;;;5014812;28;20057;-49
2023/09/01 10:41:01;;;;;;;4.90;1.67;;;20.60;99.90;;;;;;5015118;28;20054;-45
2023/09/01 10:43:35;;;;;;;3.95;1.92;;;20.80;99.90;;;;;;5017947;28;20053;-45
2023/09/01 10:46:14;;;;;;;3.03;1.75;;;20.90;99.90;;;;;;5016788;28;20554;-46
2023/09/01 10:48:53;;;;;;;5.25;1.77;;;20.90;99.90;;;;;;5006797;28;20061;-45
2023/09/01 10:51:29;;;;;;;2.67;1.50;;;20.70;99.90;;;;;;5010849;28;20072;-44
2023/09/01 10:53:59;;;;;;;4.57;1.70;;;20.50;99.90;;;;;;5007502;28;20058;-46
2023/09/01 10:56:28;;;;;;;2.20;1.50;;;20.60;99.90;;;;;;5014785;28;20046;-44
2023/09/01 10:58:57;;;;;;;3.72;1.70;;;20.70;99.90;;;;;;5036641;28;20132;-45
2023/09/01 11:01:37;;;;;;;2.97;1.77;;;20.90;99.90;;;;;;5060835;28;20033;-42
2023/09/01 11:04:14;;;;;;;2.80;1.80;;;21.40;99.90;;;;;;5047811;28;20096;-44
2023/09/01 11:06:56;;;;;;;4.10;1.67;;;21.80;99.90;;;;;;5055351;28;20131;-48
2023/09/01 11:09:47;;;;;;;4.97;1.90;;;22.00;99.90;;;;;;5058972;28;20049;-44
2023/09/01 11:12:14;;;;;;;5.13;1.90;;;22.20;99.90;;;;;;5056802;28;20053;-45
2023/09/01 11:15:01;;;;;;;2.97;1.80;;;21.80;99.90;;;;;;5060806;28;20106;-46
2023/09/01 11:17:37;;;;;;;3.88;1.60;;;21.60;99.90;;;;;;5052997;28;20075;-45
2023/09/01 11:20:09;;;;;;;5.63;1.90;;;21.70;99.90;;;;;;5055992;28;20040;-44
2023/09/01 11:22:38;;;;;;;3.50;1.80;;;21.70;99.90;;;;;;5058883;28;20048;-43
2023/09/01 11:25:12;;;;;;;3.53;1.45;;;22.30;99.90;;;;;;5058888;28;20068;-43
2023/09/01 11:27:43;;;;;;;4.22;1.70;;;22.70;99.90;;;;;;5053114;28;20107;-48
2023/09/01 11:30:11;;;;;;;;;;;22.60;99.90;;;;;;5055879;28;20049;-44
2023/09/01 11:32:39;;;;;;;2.20;1.60;;;22.60;99.90;;;;;;5056085;28;19921;-45
2023/09/01 11:35:06;;;;;;;3.78;1.67;;;22.20;99.90;;;;;;5054677;28;20136;-41
2023/09/01 11:37:40;;;;;;;4.55;1.80;;;22.10;99.90;;;;;;5060102;28;20041;-41
2023/09/01 11:40:09;;;;;;;3.15;1.80;;;21.90;99.90;;;;;;5055594;28;20041;-46
2023/09/01 11:42:39;;;;;;;3.25;1.88;;;21.70;99.90;;;;;;5058918;28;20063;-45
2023/09/01 11:45:08;;;;;;;3.08;1.95;;;21.50;99.90;;;;;;5054748;28;20045;-40
2023/09/01 11:47:37;;;;;;;3.75;1.80;;;21.20;99.90;;;;;;5056618;28;20064;-45
2023/09/01 11:50:05;;;;;;;4.05;2.22;;;21.30;99.90;;;;;;5054655;28;20383;-43
2023/09/01 11:52:51;;;;;;;3.67;1.73;;;21.70;99.90;;;;;;5055148;28;20237;-49
2023/09/01 11:55:29;;;;;;;3.28;2.08;;;22.10;99.90;;;;;;5051655;28;20206;-48
2023/09/01 11:57:58;;;;;;;2.85;1.67;;;22.40;99.90;;;;;;5046007;28;20232;-44
2023/09/01 12:00:36;;;;;;;5.07;1.80;;;22.50;99.90;;;;;;5054373;28;20049;-43
2023/09/01 12:03:04;;;;;;;3.75;1.90;;;22.90;99.90;;;;;;5048960;28;20040;-48
2023/09/01 12:05:34;;;;;;;2.08;1.50;;;23.30;99.90;;;;;;5052078;28;20044;-44
2023/09/01 12:08:03;;;;;;;3.83;2.08;;;23.40;99.90;;;;;;5052680;28;20033;-44
2023/09/01 12:10:31;;;;;;;2.72;1.80;;;23.70;99.90;;;;;;5044517;28;20071;-42
2023/09/01 12:13:07;;;;;;;5.40;2.08;;;23.60;99.90;;;;;;5055689;28;20057;-45
2023/09/01 12:16:23;;;;;;;3.63;2.00;;;23.30;99.90;;;;;;5053778;28;20048;-46
2023/09/01 12:18:54;;;;;;;3.13;1.90;;;23.50;99.90;;;;;;5010401;28;20041;-41
2023/09/01 12:21:22;;;;;;;3.80;2.00;;;23.60;99.90;;;;;;5015802;28;20060;-42
2023/09/01 12:23:49;;;;;;;2.63;1.80;;;23.70;99.90;;;;;;5012891;28;20042;-46
2023/09/01 12:26:18;;;;;;;2.88;1.80;;;23.70;99.90;;;;;;5013312;28;20072;-41
2023/09/01 12:28:45;;;;;;;3.53;1.90;;;23.60;99.90;;;;;;5013385;28;20112;-46
2023/09/01 12:31:14;;;;;;;2.55;1.92;;;23.30;99.90;;;;;;5014280;28;20232;-42
2023/09/01 12:33:41;;;;;;;3.45;1.80;;;23.70;99.90;;;;;;5014508;28;20049;-44
2023/09/01 12:36:09;;;;;;;4.20;2.28;;;23.70;99.90;;;;;;5013762;28;20060;-43
2023/09/01 12:38:36;;;;;;;3.67;2.20;;;23.50;99.90;;;;;;5013984;28;20458;-43
2023/09/01 12:41:03;;;;;;;3.67;2.15;;;23.70;99.90;;;;;;5009752;28;20105;-44
2023/09/01 12:43:32;;;;;;;3.72;1.90;;;23.60;99.90;;;;;;4998517;28;20638;-41
2023/09/01 12:45:59;;;;;;;2.45;2.00;;;23.90;99.90;;;;;;5008173;28;20124;-43
2023/09/01 12:48:27;;;;;;;3.53;2.40;;;23.90;99.90;;;;;;5018042;28;20049;-42
2023/09/01 12:50:55;;;;;;;3.97;2.20;;;24.10;99.90;;;;;;5054423;28;20327;-43
2023/09/01 12:53:22;;;;;;;2.80;2.10;;;24.00;99.90;;;;;;5057742;28;20132;-43
2023/09/01 12:55:50;;;;;;;5.03;2.20;;;23.90;99.90;;;;;;5047649;28;20076;-44
2023/09/01 12:58:17;;;;;;;3.25;2.35;;;23.80;99.90;;;;;;5057050;28;20049;-43
2023/09/01 13:00:45;;;;;;;3.20;2.13;;;23.60;99.90;;;;;;5056383;28;20131;-49